createdAt,value
2019-01-29T00:01:17.640Z,21.8
2019-01-29T00:11:16.846Z,21.8
2019-01-29T00:21:16.053Z,21.9
2019-01-29T00:31:15.263Z,21.8
2019-01-29T00:41:14.470Z,21.8
2019-01-29T00:51:13.677Z,21.6
2019-01-29T01:01:12.886Z,21.6
2019-01-29T01:11:12.095Z,21.6
2019-01-29T01:21:11.293Z,21.6
2019-01-29T01:31:10.499Z,21.8
2019-01-29T01:41:09.704Z,21.7
2019-01-29T01:51:08.913Z,21.6
2019-01-29T02:01:08.117Z,21.6
2019-01-29T02:11:07.324Z,21.6
2019-01-29T02:21:06.531Z,21.5
2019-01-29T02:31:05.738Z,21.7
2019-01-29T02:41:04.946Z,21.6
2019-01-29T02:51:04.156Z,21.6
2019-01-29T03:01:03.357Z,21.6
2019-01-29T03:11:02.576Z,21.5
2019-01-29T03:21:01.769Z,21.4
2019-01-29T03:31:00.979Z,21.4
2019-01-29T03:41:00.188Z,21.4
2019-01-29T03:50:59.394Z,21.4
2019-01-29T04:00:58.594Z,21.6
2019-01-29T04:10:57.801Z,21.6
2019-01-29T04:20:57.032Z,21.5
2019-01-29T04:30:56.215Z,21.4
2019-01-29T04:40:55.416Z,21.4
2019-01-29T04:50:54.621Z,21.5
2019-01-29T05:00:53.827Z,21.6
2019-01-29T05:10:53.032Z,21.7
2019-01-29T05:20:52.241Z,21.8
2019-01-29T05:30:51.448Z,21.7
2019-01-29T05:40:50.656Z,21.7
2019-01-29T05:50:49.872Z,21.7
2019-01-29T06:00:49.090Z,21.8
2019-01-29T06:10:48.295Z,21.8
2019-01-29T06:20:47.504Z,21.9
2019-01-29T06:30:46.720Z,21.9
2019-01-29T06:40:45.922Z,21.9
2019-01-29T06:50:45.131Z,21.9
2019-01-29T07:00:44.343Z,21.8
2019-01-29T07:10:44.240Z,21.8
2019-01-29T07:20:42.766Z,21.6
2019-01-29T07:30:41.977Z,21.6
2019-01-29T07:40:41.196Z,21.7
2019-01-29T07:50:40.398Z,21.8
2019-01-29T08:00:39.613Z,21.8
2019-01-29T08:10:38.817Z,21.8
2019-01-29T08:20:38.025Z,21.7
2019-01-29T08:30:37.234Z,21.6
2019-01-29T08:40:36.443Z,21.6
2019-01-29T08:50:35.656Z,21.5
2019-01-29T09:00:34.864Z,21.5
2019-01-29T09:10:34.073Z,21.6
2019-01-29T09:20:33.282Z,21.9
2019-01-29T09:30:32.494Z,21.8
2019-01-29T09:40:31.703Z,21.8
2019-01-29T09:50:30.914Z,21.7
2019-01-29T10:00:30.125Z,21.6
2019-01-29T10:10:29.333Z,21.6
2019-01-29T10:20:28.548Z,21.6
2019-01-29T10:30:27.758Z,21.5
2019-01-29T10:40:26.996Z,21.5
2019-01-29T10:50:26.186Z,21.6
2019-01-29T11:00:25.387Z,21.8
2019-01-29T11:10:24.602Z,21.8
2019-01-29T11:20:23.810Z,21.7
2019-01-29T11:30:23.020Z,21.6
2019-01-29T11:40:22.230Z,21.6
2019-01-29T11:50:21.441Z,21.6
2019-01-29T12:00:20.652Z,21.6
2019-01-29T12:10:19.865Z,21.5
2019-01-29T12:20:19.073Z,21.5
2019-01-29T12:30:18.284Z,21.4
2019-01-29T12:40:17.504Z,21.5
2019-01-29T12:50:16.708Z,21.4
2019-01-29T13:00:15.919Z,21.5
2019-01-29T13:10:15.128Z,21.4
2019-01-29T13:20:14.339Z,21.4
2019-01-29T13:30:13.548Z,21.4
2019-01-29T13:40:12.759Z,21.4
2019-01-29T13:50:11.970Z,21.4
2019-01-29T14:00:12.388Z,21.4
2019-01-29T14:10:10.396Z,21.4
2019-01-29T14:20:09.611Z,21.3
2019-01-29T14:30:08.820Z,21.3
2019-01-29T14:40:08.031Z,21.3
2019-01-29T14:50:07.238Z,21.3
2019-01-29T15:00:06.453Z,21.3
2019-01-29T15:10:05.659Z,21.2
2019-01-29T15:20:04.870Z,21.2
2019-01-29T15:30:04.080Z,21.4
2019-01-29T15:40:03.289Z,21.7
2019-01-29T15:50:02.501Z,21.8
2019-01-29T16:00:01.711Z,21.7
2019-01-29T16:10:00.922Z,21.8
2019-01-29T16:20:00.278Z,21.8
2019-01-29T16:29:59.357Z,21.7
2019-01-29T16:39:58.571Z,21.6
2019-01-29T16:49:57.781Z,21.6
2019-01-29T16:59:56.996Z,21.8
2019-01-29T17:09:56.213Z,21.8
2019-01-29T17:19:56.282Z,21.7
2019-01-29T17:29:54.657Z,21.6
2019-01-29T17:39:53.914Z,21.6
2019-01-29T17:49:53.081Z,21.5
2019-01-29T17:59:52.301Z,21.6
2019-01-29T18:09:51.516Z,21.8
2019-01-29T18:19:50.732Z,21.8
2019-01-29T18:29:49.976Z,21.8
2019-01-29T18:39:49.176Z,21.9
2019-01-29T18:49:48.415Z,21.9
2019-01-29T18:59:47.602Z,22.1
2019-01-29T19:09:46.814Z,22.1
2019-01-29T19:19:46.027Z,22.4
2019-01-29T19:29:45.239Z,22.4
2019-01-29T19:39:44.454Z,22.3
2019-01-29T19:49:43.677Z,22.1
2019-01-29T19:59:42.884Z,22
2019-01-29T20:09:42.100Z,21.9
2019-01-29T20:19:41.315Z,21.8
2019-01-29T20:29:40.531Z,21.8
2019-01-29T20:39:39.746Z,21.8
2019-01-29T20:49:39.063Z,21.7
2019-01-29T20:59:38.174Z,21.8
2019-01-29T21:09:37.384Z,21.9
2019-01-29T21:19:36.596Z,21.8
2019-01-29T21:29:35.807Z,21.8
2019-01-29T21:39:35.018Z,21.9
2019-01-29T21:49:34.231Z,21.8
2019-01-29T21:59:33.439Z,21.8
2019-01-29T22:09:32.652Z,21.8
2019-01-29T22:19:31.859Z,21.7
2019-01-29T22:29:31.068Z,21.6
2019-01-29T22:39:30.277Z,21.6
2019-01-29T22:49:29.488Z,21.6
2019-01-29T22:59:33.252Z,21.6
2019-01-29T23:09:27.906Z,21.6
2019-01-29T23:19:27.114Z,21.6
2019-01-29T23:29:26.324Z,21.6
2019-01-29T23:39:25.532Z,21.6
2019-01-29T23:49:24.741Z,21.5
2019-01-29T23:59:23.950Z,21.5
